createdAt,value
2019-05-15T00:00:22.895Z,19.07
2019-05-15T00:01:22.881Z,19.01
2019-05-15T00:02:22.881Z,19.12
2019-05-15T00:03:22.884Z,19.08
2019-05-15T00:04:22.855Z,19.08
2019-05-15T00:05:22.850Z,19.09
2019-05-15T00:06:22.831Z,19.07
2019-05-15T00:07:22.823Z,19.08
2019-05-15T00:08:22.823Z,19.07
2019-05-15T00:09:22.803Z,19.12
2019-05-15T00:10:22.793Z,19.01
2019-05-15T00:11:22.791Z,19.08
2019-05-15T00:12:22.772Z,19.24
2019-05-15T00:13:22.768Z,19.34
2019-05-15T00:14:22.751Z,19.47
2019-05-15T00:15:22.732Z,19.62
2019-05-15T00:16:22.723Z,19.81
2019-05-15T00:17:22.716Z,19.96
2019-05-15T00:18:22.719Z,20.07
2019-05-15T00:19:22.696Z,20.26
2019-05-15T00:20:22.692Z,20.34
2019-05-15T00:21:22.671Z,20.55
2019-05-15T00:22:22.665Z,20.85
2019-05-15T00:23:22.668Z,20.86
2019-05-15T00:24:22.649Z,21.08
2019-05-15T00:25:22.842Z,21.32
2019-05-15T00:26:22.623Z,21.47
2019-05-15T00:27:22.611Z,21.59
2019-05-15T00:28:22.615Z,21.92
2019-05-15T00:29:22.591Z,22.07
2019-05-15T00:30:22.582Z,22.18
2019-05-15T00:31:22.568Z,22.31
2019-05-15T00:32:22.557Z,22.41
2019-05-15T00:33:22.563Z,22.40
2019-05-15T00:34:22.535Z,22.51
2019-05-15T00:35:22.521Z,22.61
2019-05-15T00:36:22.511Z,22.68
2019-05-15T00:37:22.509Z,22.76
2019-05-15T00:38:22.504Z,22.78
2019-05-15T00:39:22.479Z,22.76
2019-05-15T00:40:22.473Z,22.67
2019-05-15T00:41:22.461Z,22.73
2019-05-15T00:42:22.447Z,22.65
2019-05-15T00:43:22.457Z,22.47
2019-05-15T00:44:22.429Z,22.43
2019-05-15T00:45:22.421Z,22.43
2019-05-15T00:46:22.407Z,22.43
2019-05-15T00:47:22.393Z,22.30
2019-05-15T00:48:22.399Z,22.31
2019-05-15T00:49:22.374Z,22.16
2019-05-15T00:50:22.362Z,22.08
2019-05-15T00:51:22.352Z,21.97
2019-05-15T00:52:22.337Z,22.06
2019-05-15T00:53:22.342Z,21.91
2019-05-15T00:54:22.322Z,21.91
2019-05-15T00:55:22.311Z,21.81
2019-05-15T00:56:22.295Z,21.75
2019-05-15T00:57:22.301Z,21.62
2019-05-15T00:58:22.290Z,21.60
2019-05-15T00:59:26.666Z,21.60
2019-05-15T01:00:23.257Z,21.60
2019-05-15T01:01:22.247Z,21.54
2019-05-15T01:02:22.236Z,21.51
2019-05-15T01:03:22.237Z,21.37
2019-05-15T01:04:22.213Z,21.35
2019-05-15T01:05:22.203Z,21.28
2019-05-15T01:06:22.193Z,21.20
2019-05-15T01:07:22.187Z,21.13
2019-05-15T01:08:22.190Z,21.17
2019-05-15T01:09:22.173Z,21.08
2019-05-15T01:10:22.146Z,21.08
2019-05-15T01:11:22.141Z,20.95
2019-05-15T01:12:22.126Z,20.89
2019-05-15T01:13:22.149Z,20.90
2019-05-15T01:14:22.107Z,20.90
2019-05-15T01:15:22.101Z,20.82
2019-05-15T01:16:22.089Z,20.89
2019-05-15T01:17:22.085Z,20.90
2019-05-15T01:18:22.078Z,20.89
2019-05-15T01:19:22.056Z,20.90
2019-05-15T01:20:22.048Z,20.82
2019-05-15T01:21:22.036Z,20.88
2019-05-15T01:22:22.022Z,20.75
2019-05-15T01:23:22.041Z,20.77
2019-05-15T01:24:22.008Z,20.71
2019-05-15T01:25:21.992Z,20.71
2019-05-15T01:26:21.988Z,20.73
2019-05-15T01:27:21.970Z,20.73
2019-05-15T01:28:21.961Z,20.59
2019-05-15T01:29:21.962Z,20.58
2019-05-15T01:30:21.939Z,20.59
2019-05-15T01:31:21.929Z,20.58
2019-05-15T01:32:21.918Z,20.50
2019-05-15T01:33:21.905Z,20.44
2019-05-15T01:34:21.908Z,20.39
2019-05-15T01:35:21.885Z,20.42
2019-05-15T01:36:21.876Z,20.33
2019-05-15T01:37:21.868Z,20.30
2019-05-15T01:38:21.857Z,20.32
2019-05-15T01:39:21.861Z,20.27
2019-05-15T01:40:21.835Z,20.15
2019-05-15T01:41:21.823Z,20.18
2019-05-15T01:42:21.817Z,20.15
2019-05-15T01:43:21.797Z,20.08
2019-05-15T01:44:21.820Z,20.08
2019-05-15T01:45:21.777Z,20.04
2019-05-15T01:46:21.771Z,19.96
2019-05-15T01:47:21.753Z,19.90
2019-05-15T01:48:21.739Z,19.94
2019-05-15T01:49:21.754Z,19.96
2019-05-15T01:50:21.720Z,19.85
2019-05-15T01:51:21.715Z,19.85
2019-05-15T01:52:21.700Z,19.79
2019-05-15T01:53:21.687Z,19.79
2019-05-15T01:54:21.695Z,19.75
2019-05-15T01:55:21.665Z,19.67
2019-05-15T01:56:21.653Z,19.77
2019-05-15T01:57:21.644Z,19.74
2019-05-15T01:58:21.637Z,19.72
2019-05-15T01:59:21.639Z,19.63
2019-05-15T02:00:21.618Z,19.64
2019-05-15T02:01:21.606Z,19.59
2019-05-15T02:02:21.605Z,19.64
2019-05-15T02:03:21.583Z,19.64
2019-05-15T02:04:21.588Z,19.64
2019-05-15T02:05:21.561Z,19.62
2019-05-15T02:06:21.554Z,19.57
2019-05-15T02:07:21.539Z,19.57
2019-05-15T02:08:21.527Z,19.52
2019-05-15T02:09:21.534Z,19.48
2019-05-15T02:10:21.503Z,19.45
2019-05-15T02:11:21.495Z,19.42
2019-05-15T02:12:21.483Z,19.49
2019-05-15T02:13:21.475Z,19.47
2019-05-15T02:14:21.492Z,19.47
2019-05-15T02:15:21.453Z,19.38
2019-05-15T02:16:21.446Z,19.38
2019-05-15T02:17:21.436Z,19.44
2019-05-15T02:18:21.447Z,19.41
2019-05-15T02:19:21.408Z,19.35
2019-05-15T02:20:21.465Z,19.39
2019-05-15T02:21:21.384Z,19.37
2019-05-15T02:22:21.379Z,19.30
2019-05-15T02:23:21.366Z,19.32
2019-05-15T02:24:21.353Z,19.34
2019-05-15T02:25:21.358Z,19.32
2019-05-15T02:26:21.332Z,19.37
2019-05-15T02:27:21.317Z,19.27
2019-05-15T02:28:21.306Z,19.27
2019-05-15T02:29:25.204Z,19.29
2019-05-15T02:30:28.330Z,19.27
2019-05-15T02:31:22.277Z,19.24
2019-05-15T02:32:21.264Z,19.24
2019-05-15T02:33:21.258Z,19.22
2019-05-15T02:34:21.242Z,19.24
2019-05-15T02:35:21.255Z,19.17
2019-05-15T02:36:21.221Z,19.20
2019-05-15T02:37:21.215Z,19.15
2019-05-15T02:38:21.197Z,19.24
2019-05-15T02:39:21.188Z,19.22
2019-05-15T02:40:21.191Z,19.32
2019-05-15T02:41:21.175Z,19.32
2019-05-15T02:42:21.156Z,19.37
2019-05-15T02:43:21.143Z,19.53
2019-05-15T02:44:21.135Z,19.62
2019-05-15T02:45:21.138Z,19.72
2019-05-15T02:46:21.117Z,19.78
2019-05-15T02:47:21.097Z,19.81
2019-05-15T02:48:21.095Z,20.04
2019-05-15T02:49:21.077Z,20.10
2019-05-15T02:50:21.082Z,20.15
2019-05-15T02:51:21.059Z,20.24
2019-05-15T02:52:21.048Z,20.48
2019-05-15T02:53:21.037Z,20.58
2019-05-15T02:54:21.024Z,20.67
2019-05-15T02:55:21.028Z,20.67
2019-05-15T02:56:21.002Z,20.83
2019-05-15T02:57:20.999Z,20.74
2019-05-15T02:58:21.880Z,20.88
2019-05-15T02:59:20.969Z,20.88
2019-05-15T03:00:36.574Z,20.78
2019-05-15T03:01:21.948Z,20.90
2019-05-15T03:02:20.949Z,20.77
2019-05-15T03:03:20.963Z,20.85
2019-05-15T03:04:20.911Z,20.92
2019-05-15T03:05:20.903Z,20.86
2019-05-15T03:06:20.906Z,20.89
2019-05-15T03:07:20.881Z,20.78
2019-05-15T03:08:20.881Z,20.86
2019-05-15T03:09:20.862Z,20.88
2019-05-15T03:10:20.854Z,20.83
2019-05-15T03:11:20.864Z,20.85
2019-05-15T03:12:20.830Z,20.75
2019-05-15T03:13:20.816Z,20.67
2019-05-15T03:14:21.668Z,20.71
2019-05-15T03:15:20.795Z,20.73
2019-05-15T03:16:20.807Z,20.68
2019-05-15T03:17:20.788Z,20.60
2019-05-15T03:18:20.769Z,20.58
2019-05-15T03:19:20.751Z,20.58
2019-05-15T03:20:20.748Z,20.55
2019-05-15T03:21:20.746Z,20.58
2019-05-15T03:22:20.727Z,20.55
2019-05-15T03:23:20.711Z,20.48
2019-05-15T03:24:20.717Z,20.46
2019-05-15T03:25:20.694Z,20.40
2019-05-15T03:26:20.696Z,20.37
2019-05-15T03:27:20.666Z,20.36
2019-05-15T03:28:20.662Z,20.37
2019-05-15T03:29:21.339Z,20.34
2019-05-15T03:30:22.138Z,20.33
2019-05-15T03:31:41.448Z,20.42
2019-05-15T03:32:32.385Z,20.24
2019-05-15T03:33:28.227Z,20.24
2019-05-15T03:34:29.194Z,20.29
2019-05-15T03:35:22.995Z,20.29
2019-05-15T03:36:23.247Z,20.29
2019-05-15T03:37:22.240Z,20.27
2019-05-15T03:38:20.551Z,20.29
2019-05-15T03:39:20.556Z,20.14
2019-05-15T03:40:20.536Z,20.27
2019-05-15T03:41:20.524Z,20.18
2019-05-15T03:42:20.524Z,20.15
2019-05-15T03:43:20.504Z,20.27
2019-05-15T03:44:20.487Z,20.21
2019-05-15T03:45:20.490Z,20.19
2019-05-15T03:46:20.499Z,20.12
2019-05-15T03:47:20.473Z,20.15
2019-05-15T03:48:20.441Z,20.15
2019-05-15T03:49:20.431Z,20.19
2019-05-15T03:50:20.420Z,20.17
2019-05-15T03:51:20.416Z,20.15
2019-05-15T03:52:20.428Z,20.18
2019-05-15T03:53:20.389Z,20.15
2019-05-15T03:54:20.379Z,20.08
2019-05-15T03:55:20.367Z,20.07
2019-05-15T03:56:20.359Z,20.03
2019-05-15T03:57:23.111Z,20.00
2019-05-15T03:58:21.677Z,20.07
2019-05-15T03:59:20.327Z,20.07
2019-05-15T04:00:20.312Z,20.04
2019-05-15T04:01:29.771Z,19.96
2019-05-15T04:02:21.327Z,19.97
2019-05-15T04:03:20.528Z,20.02
2019-05-15T04:04:20.268Z,19.90
2019-05-15T04:05:20.292Z,20.02
2019-05-15T04:06:20.260Z,19.99
2019-05-15T04:07:20.257Z,19.93
2019-05-15T04:08:20.239Z,19.96
2019-05-15T04:09:20.216Z,19.90
2019-05-15T04:10:20.249Z,19.89
2019-05-15T04:11:20.514Z,19.84
2019-05-15T04:12:20.200Z,19.92
2019-05-15T04:13:20.173Z,19.82
2019-05-15T04:14:20.161Z,19.89
2019-05-15T04:15:20.149Z,19.81
2019-05-15T04:16:20.159Z,19.75
2019-05-15T04:17:20.177Z,19.72
2019-05-15T04:18:20.250Z,19.71
2019-05-15T04:19:20.116Z,19.74
2019-05-15T04:20:20.324Z,19.62
2019-05-15T04:21:20.342Z,19.63
2019-05-15T04:22:20.149Z,19.62
2019-05-15T04:23:20.090Z,19.48
2019-05-15T04:24:20.055Z,19.52
2019-05-15T04:25:20.043Z,19.44
2019-05-15T04:26:20.049Z,19.35
2019-05-15T04:27:20.016Z,19.37
2019-05-15T04:28:20.023Z,19.35
2019-05-15T04:29:19.995Z,19.27
2019-05-15T04:30:19.990Z,19.32
2019-05-15T04:31:19.979Z,19.26
2019-05-15T04:32:20.315Z,19.20
2019-05-15T04:33:20.196Z,19.09
2019-05-15T04:34:19.949Z,19.07
2019-05-15T04:35:20.063Z,19.09
2019-05-15T04:36:19.921Z,19.15
2019-05-15T04:37:19.914Z,19.08
2019-05-15T04:38:19.929Z,19.11
2019-05-15T04:39:19.888Z,19.08
2019-05-15T04:40:19.876Z,19.07
2019-05-15T04:41:20.232Z,19.00
2019-05-15T04:42:20.449Z,19.05
2019-05-15T04:43:19.856Z,19.09
2019-05-15T04:44:19.829Z,19.01
2019-05-15T04:45:19.851Z,19.05
2019-05-15T04:46:20.082Z,19.15
2019-05-15T04:47:19.802Z,19.11
2019-05-15T04:48:20.225Z,19.17
2019-05-15T04:49:19.784Z,19.11
2019-05-15T04:50:19.782Z,19.11
2019-05-15T04:51:19.761Z,19.05
2019-05-15T04:52:19.759Z,19.12
2019-05-15T04:53:19.752Z,19.16
2019-05-15T04:54:20.233Z,19.26
2019-05-15T04:55:20.005Z,19.27
2019-05-15T04:56:19.732Z,19.30
2019-05-15T04:57:19.696Z,19.37
2019-05-15T04:58:21.104Z,19.41
2019-05-15T04:59:19.997Z,19.53
2019-05-15T05:00:19.938Z,19.48
2019-05-15T05:01:20.221Z,19.64
2019-05-15T05:02:26.514Z,19.64
2019-05-15T05:03:20.974Z,19.67
2019-05-15T05:04:19.621Z,19.79
2019-05-15T05:05:19.614Z,19.89
2019-05-15T05:06:19.622Z,19.96
2019-05-15T05:07:19.591Z,20.03
2019-05-15T05:08:20.568Z,20.17
2019-05-15T05:09:19.974Z,20.26
2019-05-15T05:10:19.801Z,20.11
2019-05-15T05:11:23.575Z,20.14
2019-05-15T05:12:19.586Z,20.14
2019-05-15T05:13:20.300Z,20.26
2019-05-15T05:14:19.517Z,20.29
2019-05-15T05:15:19.518Z,20.29
2019-05-15T05:16:19.497Z,20.27
2019-05-15T05:17:19.745Z,20.33
2019-05-15T05:18:19.699Z,20.44
2019-05-15T05:19:19.747Z,20.37
2019-05-15T05:20:19.448Z,20.42
2019-05-15T05:21:19.442Z,20.37
2019-05-15T05:22:19.437Z,20.46
2019-05-15T05:23:19.663Z,20.48
2019-05-15T05:24:19.411Z,20.48
2019-05-15T05:25:19.398Z,20.48
2019-05-15T05:26:19.386Z,20.40
2019-05-15T05:27:19.379Z,20.50
2019-05-15T05:28:19.385Z,20.40
2019-05-15T05:29:19.357Z,20.40
2019-05-15T05:30:19.348Z,20.48
2019-05-15T05:31:19.354Z,20.46
2019-05-15T05:32:30.942Z,20.42
2019-05-15T05:33:20.328Z,20.30
2019-05-15T05:34:19.540Z,20.24
2019-05-15T05:35:19.295Z,20.26
2019-05-15T05:36:19.277Z,20.27
2019-05-15T05:37:19.267Z,20.21
2019-05-15T05:38:19.669Z,20.17
2019-05-15T05:39:20.083Z,20.17
2019-05-15T05:40:19.238Z,20.18
2019-05-15T05:41:19.229Z,20.07
2019-05-15T05:42:19.211Z,19.97
2019-05-15T05:43:19.241Z,19.99
2019-05-15T05:44:19.195Z,19.92
2019-05-15T05:45:19.184Z,19.90
2019-05-15T05:46:19.174Z,19.82
2019-05-15T05:47:19.160Z,19.79
2019-05-15T05:48:19.454Z,19.79
2019-05-15T05:49:19.144Z,19.78
2019-05-15T05:50:19.125Z,19.77
2019-05-15T05:51:19.287Z,19.74
2019-05-15T05:52:19.116Z,19.70
2019-05-15T05:53:21.335Z,19.67
2019-05-15T05:54:19.108Z,19.63
2019-05-15T05:55:19.069Z,19.63
2019-05-15T05:56:19.061Z,19.66
2019-05-15T05:57:19.475Z,19.60
2019-05-15T05:58:19.825Z,19.56
2019-05-15T05:59:19.033Z,19.44
2019-05-15T06:00:19.031Z,19.52
2019-05-15T06:01:19.072Z,19.44
2019-05-15T06:02:18.998Z,19.37
2019-05-15T06:03:19.723Z,19.38
2019-05-15T06:04:18.988Z,19.35
2019-05-15T06:05:19.134Z,19.37
2019-05-15T06:06:18.953Z,19.35
2019-05-15T06:07:18.942Z,19.27
2019-05-15T06:08:19.731Z,19.29
2019-05-15T06:09:18.940Z,19.29
2019-05-15T06:10:18.908Z,19.32
2019-05-15T06:11:18.894Z,19.24
2019-05-15T06:12:19.068Z,19.27
2019-05-15T06:13:18.981Z,19.32
2019-05-15T06:14:18.875Z,19.27
2019-05-15T06:15:18.860Z,19.34
2019-05-15T06:16:19.079Z,19.26
2019-05-15T06:17:19.171Z,19.27
2019-05-15T06:18:19.886Z,19.26
2019-05-15T06:19:18.820Z,19.20
2019-05-15T06:20:18.797Z,19.24
2019-05-15T06:21:18.790Z,19.24
2019-05-15T06:22:18.952Z,19.22
2019-05-15T06:23:23.167Z,19.19
2019-05-15T06:24:19.771Z,19.16
2019-05-15T06:25:19.849Z,19.09
2019-05-15T06:26:19.633Z,19.11
2019-05-15T06:27:20.022Z,19.08
2019-05-15T06:28:19.955Z,19.11
2019-05-15T06:29:18.719Z,19.16
2019-05-15T06:30:26.431Z,19.17
2019-05-15T06:31:19.675Z,19.09
2019-05-15T06:32:19.402Z,19.17
2019-05-15T06:33:19.059Z,19.17
2019-05-15T06:34:18.661Z,19.19
2019-05-15T06:35:19.397Z,19.05
2019-05-15T06:36:18.626Z,19.12
2019-05-15T06:37:19.704Z,19.17
2019-05-15T06:38:19.262Z,19.15
2019-05-15T06:39:18.621Z,19.26
2019-05-15T06:40:18.573Z,19.27
2019-05-15T06:41:18.574Z,19.23
2019-05-15T06:42:18.900Z,19.26
2019-05-15T06:43:19.370Z,19.38
2019-05-15T06:44:18.898Z,19.42
2019-05-15T06:45:18.879Z,19.60
2019-05-15T06:46:18.862Z,19.60
2019-05-15T06:47:18.504Z,19.74
2019-05-15T06:48:18.810Z,19.92
2019-05-15T06:49:18.506Z,19.99
2019-05-15T06:50:18.478Z,20.17
2019-05-15T06:51:18.504Z,20.21
2019-05-15T06:52:18.451Z,20.44
2019-05-15T06:53:19.102Z,20.59
2019-05-15T06:54:18.891Z,20.73
2019-05-15T06:55:18.414Z,20.86
2019-05-15T06:56:18.911Z,20.83
2019-05-15T06:57:18.598Z,21.01
2019-05-15T06:58:19.666Z,20.90
2019-05-15T06:59:18.396Z,21.05
2019-05-15T07:00:19.206Z,21.11
2019-05-15T07:01:19.037Z,21.10
2019-05-15T07:02:19.011Z,21.15
2019-05-15T07:03:25.223Z,21.17
2019-05-15T07:04:19.335Z,21.13
2019-05-15T07:05:18.497Z,21.22
2019-05-15T07:06:18.381Z,21.17
2019-05-15T07:07:18.371Z,21.20
2019-05-15T07:08:18.424Z,21.11
2019-05-15T07:09:18.286Z,21.13
2019-05-15T07:10:18.981Z,21.15
2019-05-15T07:11:19.083Z,21.14
2019-05-15T07:12:18.692Z,21.05
2019-05-15T07:13:18.579Z,21.11
2019-05-15T07:14:18.300Z,21.08
2019-05-15T07:15:18.364Z,21.08
2019-05-15T07:16:18.371Z,21.10
2019-05-15T07:17:18.182Z,21.08
2019-05-15T07:18:19.823Z,21.10
2019-05-15T07:19:18.986Z,21.08
2019-05-15T07:20:18.553Z,21.04
2019-05-15T07:21:20.501Z,21.11
2019-05-15T07:22:18.389Z,21.01
2019-05-15T07:23:18.746Z,21.13
2019-05-15T07:24:18.359Z,21.03
2019-05-15T07:25:18.872Z,21.00
2019-05-15T07:26:18.374Z,20.93
2019-05-15T07:27:18.482Z,20.85
2019-05-15T07:28:18.387Z,20.92
2019-05-15T07:29:18.941Z,20.92
2019-05-15T07:30:18.748Z,20.88
2019-05-15T07:31:18.212Z,20.83
2019-05-15T07:32:19.223Z,20.89
2019-05-15T07:33:28.031Z,20.85
2019-05-15T07:34:19.013Z,20.82
2019-05-15T07:35:19.110Z,20.83
2019-05-15T07:36:19.337Z,20.88
2019-05-15T07:37:19.100Z,20.82
2019-05-15T07:38:18.345Z,20.86
2019-05-15T07:39:18.107Z,20.80
2019-05-15T07:40:19.327Z,20.80
2019-05-15T07:41:18.440Z,20.75
2019-05-15T07:42:18.529Z,20.71
2019-05-15T07:43:18.312Z,20.73
2019-05-15T07:44:18.847Z,20.66
2019-05-15T07:45:19.770Z,20.73
2019-05-15T07:46:18.509Z,20.70
2019-05-15T07:47:19.091Z,20.55
2019-05-15T07:48:18.706Z,20.56
2019-05-15T07:49:18.250Z,20.55
2019-05-15T07:50:19.698Z,20.55
2019-05-15T07:51:18.137Z,20.59
2019-05-15T07:52:19.372Z,20.48
2019-05-15T07:53:19.705Z,20.50
2019-05-15T07:54:18.323Z,20.42
2019-05-15T07:55:18.505Z,20.48
2019-05-15T07:56:18.222Z,20.49
2019-05-15T07:57:19.333Z,20.37
2019-05-15T07:58:21.567Z,20.46
2019-05-15T07:59:18.704Z,20.48
2019-05-15T08:00:18.897Z,20.40
2019-05-15T08:01:18.550Z,20.48
2019-05-15T08:02:19.099Z,20.48
2019-05-15T08:03:18.384Z,20.46
2019-05-15T08:04:25.821Z,20.48
2019-05-15T08:05:18.676Z,20.40
2019-05-15T08:06:18.104Z,20.42
2019-05-15T08:07:18.456Z,20.34
2019-05-15T08:08:18.517Z,20.33
2019-05-15T08:09:18.063Z,20.24
2019-05-15T08:10:18.301Z,20.27
2019-05-15T08:11:24.085Z,20.36
2019-05-15T08:12:19.307Z,20.22
2019-05-15T08:13:18.486Z,20.26
2019-05-15T08:14:18.571Z,20.22
2019-05-15T08:15:18.289Z,20.22
2019-05-15T08:16:18.135Z,20.27
2019-05-15T08:17:19.105Z,20.22
2019-05-15T08:18:18.017Z,20.24
2019-05-15T08:19:18.359Z,20.26
2019-05-15T08:20:18.376Z,20.29
2019-05-15T08:21:18.606Z,20.15
2019-05-15T08:22:18.293Z,20.17
2019-05-15T08:23:19.136Z,20.14
2019-05-15T08:24:18.894Z,20.11
2019-05-15T08:25:31.230Z,20.15
2019-05-15T08:26:18.468Z,20.14
2019-05-15T08:27:19.102Z,20.15
2019-05-15T08:28:19.186Z,20.14
2019-05-15T08:29:21.442Z,20.18
2019-05-15T08:30:18.357Z,20.15
2019-05-15T08:31:18.355Z,20.21
2019-05-15T08:32:19.044Z,20.17
2019-05-15T08:33:17.976Z,20.14
2019-05-15T08:34:19.492Z,20.17
2019-05-15T08:35:19.112Z,20.18
2019-05-15T08:36:18.381Z,20.15
2019-05-15T08:37:18.277Z,20.15
2019-05-15T08:38:18.252Z,20.26
2019-05-15T08:39:19.010Z,20.11
2019-05-15T08:40:17.912Z,20.26
2019-05-15T08:41:18.536Z,20.12
2019-05-15T08:42:18.879Z,20.17
2019-05-15T08:43:18.391Z,20.21
2019-05-15T08:44:18.648Z,20.17
2019-05-15T08:45:18.859Z,20.27
2019-05-15T08:46:18.640Z,20.21
2019-05-15T08:47:19.191Z,20.15
2019-05-15T08:48:18.561Z,20.17
2019-05-15T08:49:20.308Z,20.15
2019-05-15T08:50:18.290Z,20.12
2019-05-15T08:51:19.352Z,20.15
2019-05-15T08:52:18.975Z,20.21
2019-05-15T08:53:19.323Z,20.14
2019-05-15T08:54:18.280Z,20.11
2019-05-15T08:55:17.164Z,20.14
2019-05-15T08:56:19.428Z,20.24
2019-05-15T08:57:20.447Z,20.15
2019-05-15T08:58:20.047Z,20.15
2019-05-15T08:59:18.842Z,20.22
2019-05-15T09:00:18.552Z,20.27
2019-05-15T09:01:18.109Z,20.32
2019-05-15T09:02:18.553Z,20.40
2019-05-15T09:03:18.278Z,20.39
2019-05-15T09:04:27.901Z,20.48
2019-05-15T09:05:18.786Z,20.56
2019-05-15T09:06:20.657Z,20.58
2019-05-15T09:07:18.194Z,20.67
2019-05-15T09:08:19.418Z,20.80
2019-05-15T09:09:18.240Z,20.88
2019-05-15T09:10:18.383Z,20.89
2019-05-15T09:11:19.276Z,21.00
2019-05-15T09:12:18.849Z,21.07
2019-05-15T09:13:18.963Z,21.07
2019-05-15T09:14:18.484Z,21.17
2019-05-15T09:15:18.480Z,21.25
2019-05-15T09:16:18.466Z,21.37
2019-05-15T09:17:18.170Z,21.38
2019-05-15T09:18:19.904Z,21.43
2019-05-15T09:19:18.453Z,21.45
2019-05-15T09:20:19.348Z,21.47
2019-05-15T09:21:19.199Z,21.51
2019-05-15T09:22:18.746Z,21.48
2019-05-15T09:23:19.455Z,21.56
2019-05-15T09:24:19.667Z,21.62
2019-05-15T09:25:19.430Z,21.70
2019-05-15T09:26:19.266Z,21.75
2019-05-15T09:27:18.479Z,21.74
2019-05-15T09:28:18.967Z,21.81
2019-05-15T09:29:18.316Z,21.84
2019-05-15T09:30:18.312Z,21.85
2019-05-15T09:31:19.061Z,21.85
2019-05-15T09:32:18.785Z,21.92
2019-05-15T09:33:19.568Z,21.96
2019-05-15T09:34:18.568Z,21.94
2019-05-15T09:35:18.686Z,22.04
2019-05-15T09:36:16.738Z,22.00
2019-05-15T09:37:18.078Z,22.03
2019-05-15T09:38:18.497Z,22.01
2019-05-15T09:39:18.259Z,22.03
2019-05-15T09:40:18.641Z,22.14
2019-05-15T09:41:17.879Z,22.16
2019-05-15T09:42:18.007Z,22.14
2019-05-15T09:43:18.178Z,22.00
2019-05-15T09:44:21.015Z,22.00
2019-05-15T09:45:18.067Z,22.14
2019-05-15T09:46:18.503Z,22.03
2019-05-15T09:47:18.868Z,22.00
2019-05-15T09:48:19.251Z,22.01
2019-05-15T09:49:18.178Z,22.06
2019-05-15T09:50:19.114Z,21.99
2019-05-15T09:51:18.320Z,22.03
2019-05-15T09:52:20.127Z,22.04
2019-05-15T09:53:18.938Z,22.01
2019-05-15T09:54:19.071Z,22.04
2019-05-15T09:55:18.082Z,22.01
2019-05-15T09:56:18.510Z,21.94
2019-05-15T09:57:18.782Z,21.91
2019-05-15T09:58:19.681Z,21.85
2019-05-15T09:59:18.601Z,21.83
2019-05-15T10:00:18.787Z,21.74
2019-05-15T10:01:19.337Z,21.88
2019-05-15T10:02:18.718Z,21.84
2019-05-15T10:03:18.886Z,21.81
2019-05-15T10:04:18.774Z,21.70
2019-05-15T10:05:18.533Z,21.77
2019-05-15T10:06:20.061Z,21.75
2019-05-15T10:07:19.109Z,21.81
2019-05-15T10:08:16.391Z,21.80
2019-05-15T10:09:18.671Z,21.74
2019-05-15T10:10:16.380Z,21.77
2019-05-15T10:11:19.307Z,21.83
2019-05-15T10:12:18.334Z,21.74
2019-05-15T10:13:18.498Z,21.72
2019-05-15T10:14:19.264Z,21.68
2019-05-15T10:15:18.500Z,21.63
2019-05-15T10:16:19.547Z,21.66
2019-05-15T10:17:18.366Z,21.63
2019-05-15T10:18:18.746Z,21.62
2019-05-15T10:19:18.556Z,21.65
2019-05-15T10:20:18.433Z,21.58
2019-05-15T10:21:18.686Z,21.45
2019-05-15T10:22:18.553Z,21.47
2019-05-15T10:23:19.133Z,21.45
2019-05-15T10:24:18.235Z,21.47
2019-05-15T10:25:18.804Z,21.32
2019-05-15T10:26:16.203Z,21.33
2019-05-15T10:27:18.063Z,21.25
2019-05-15T10:28:18.845Z,21.20
2019-05-15T10:29:16.156Z,21.20
2019-05-15T10:30:18.696Z,21.14
2019-05-15T10:31:16.141Z,21.17
2019-05-15T10:32:19.251Z,21.07
2019-05-15T10:33:16.105Z,21.07
2019-05-15T10:34:18.219Z,21.11
2019-05-15T10:35:25.764Z,21.07
2019-05-15T10:36:18.897Z,20.95
2019-05-15T10:37:18.545Z,21.04
2019-05-15T10:38:16.061Z,21.01
2019-05-15T10:39:18.026Z,21.00
2019-05-15T10:40:16.031Z,20.85
2019-05-15T10:41:18.546Z,20.88
2019-05-15T10:42:16.015Z,20.96
2019-05-15T10:43:16.010Z,20.92
2019-05-15T10:44:18.017Z,20.90
2019-05-15T10:45:15.986Z,20.89
2019-05-15T10:46:15.996Z,20.92
2019-05-15T10:47:15.964Z,20.85
2019-05-15T10:48:18.710Z,20.80
2019-05-15T10:49:15.932Z,20.92
2019-05-15T10:50:15.936Z,20.90
2019-05-15T10:51:15.942Z,20.90
2019-05-15T10:52:18.054Z,20.77
2019-05-15T10:53:18.476Z,20.83
2019-05-15T10:54:15.881Z,20.88
2019-05-15T10:55:18.824Z,20.80
2019-05-15T10:56:18.369Z,20.85
2019-05-15T10:57:15.851Z,20.83
2019-05-15T10:58:18.295Z,20.80
2019-05-15T10:59:18.353Z,20.86
2019-05-15T11:00:15.862Z,20.80
2019-05-15T11:01:15.835Z,20.82
2019-05-15T11:02:15.843Z,20.88
2019-05-15T11:03:15.794Z,20.80
2019-05-15T11:04:17.999Z,20.83
2019-05-15T11:05:17.877Z,20.78
2019-05-15T11:06:18.151Z,20.85
2019-05-15T11:07:15.747Z,20.90
2019-05-15T11:08:15.748Z,20.89
2019-05-15T11:09:15.726Z,20.88
2019-05-15T11:10:18.383Z,20.88
2019-05-15T11:11:18.182Z,20.78
2019-05-15T11:12:18.683Z,20.93
2019-05-15T11:13:18.386Z,21.00
2019-05-15T11:14:18.277Z,21.03
2019-05-15T11:15:18.192Z,21.01
2019-05-15T11:16:15.666Z,20.90
2019-05-15T11:17:15.639Z,20.92
2019-05-15T11:18:15.629Z,20.95
2019-05-15T11:19:15.617Z,21.01
2019-05-15T11:20:15.613Z,20.96
2019-05-15T11:21:15.614Z,21.07
2019-05-15T11:22:15.604Z,21.20
2019-05-15T11:23:15.576Z,21.15
2019-05-15T11:24:15.574Z,21.13
2019-05-15T11:25:15.560Z,21.17
2019-05-15T11:26:15.559Z,21.23
2019-05-15T11:27:15.531Z,21.23
2019-05-15T11:28:15.530Z,21.29
2019-05-15T11:29:15.512Z,21.29
2019-05-15T11:30:15.503Z,21.29
2019-05-15T11:31:15.503Z,21.28
2019-05-15T11:32:15.485Z,21.37
2019-05-15T11:33:18.534Z,21.40
2019-05-15T11:34:18.393Z,21.40
2019-05-15T11:35:17.995Z,21.35
2019-05-15T11:36:18.342Z,21.47
2019-05-15T11:37:15.429Z,21.35
2019-05-15T11:38:16.536Z,21.37
2019-05-15T11:39:18.052Z,21.38
2019-05-15T11:40:15.400Z,21.40
2019-05-15T11:41:18.383Z,21.38
2019-05-15T11:42:15.384Z,21.44
2019-05-15T11:43:15.370Z,21.38
2019-05-15T11:44:15.351Z,21.40
2019-05-15T11:45:15.344Z,21.40
2019-05-15T11:46:15.347Z,21.43
2019-05-15T11:47:15.358Z,21.48
2019-05-15T11:48:15.315Z,21.47
2019-05-15T11:49:15.314Z,21.29
2019-05-15T11:50:15.296Z,21.35
2019-05-15T11:51:15.302Z,21.37
2019-05-15T11:52:15.271Z,21.38
2019-05-15T11:53:15.257Z,21.38
2019-05-15T11:54:15.253Z,21.38
2019-05-15T11:55:15.263Z,21.47
2019-05-15T11:56:15.241Z,21.38
2019-05-15T11:57:15.227Z,21.44
2019-05-15T11:58:15.222Z,21.45
2019-05-15T11:59:15.197Z,21.50
2019-05-15T12:00:20.280Z,21.43
2019-05-15T12:01:19.083Z,21.50
2019-05-15T12:02:15.159Z,21.56
2019-05-15T12:03:15.153Z,21.47
2019-05-15T12:04:28.781Z,21.44
2019-05-15T12:05:18.289Z,21.50
2019-05-15T12:06:19.725Z,21.45
2019-05-15T12:07:18.203Z,21.33
2019-05-15T12:08:15.108Z,21.38
2019-05-15T12:09:15.087Z,21.30
2019-05-15T12:10:15.079Z,21.33
2019-05-15T12:11:28.646Z,21.33
2019-05-15T12:12:18.040Z,21.33
2019-05-15T12:13:15.043Z,21.47
2019-05-15T12:14:15.046Z,21.43
2019-05-15T12:15:15.021Z,21.56
2019-05-15T12:16:15.016Z,21.54
2019-05-15T12:17:15.603Z,21.58
2019-05-15T12:18:15.006Z,21.48
2019-05-15T12:19:17.377Z,21.43
2019-05-15T12:20:14.970Z,21.47
2019-05-15T12:21:19.619Z,21.40
2019-05-15T12:22:15.962Z,21.30
2019-05-15T12:23:14.940Z,21.35
2019-05-15T12:24:14.931Z,21.30
2019-05-15T12:25:14.918Z,21.30
2019-05-15T12:26:14.924Z,21.25
2019-05-15T12:27:18.190Z,21.30
2019-05-15T12:28:14.906Z,21.38
2019-05-15T12:29:14.880Z,21.32
2019-05-15T12:30:14.874Z,21.47
2019-05-15T12:31:14.857Z,21.38
2019-05-15T12:32:26.530Z,21.47
2019-05-15T12:33:18.169Z,21.54
2019-05-15T12:34:14.840Z,21.51
2019-05-15T12:35:14.808Z,21.59
2019-05-15T12:36:14.805Z,21.45
2019-05-15T12:37:14.804Z,21.47
2019-05-15T12:38:14.782Z,21.45
2019-05-15T12:39:20.627Z,21.51
2019-05-15T13:00:15.558Z,21.03
2019-05-15T13:01:17.793Z,21.04
2019-05-15T13:02:14.548Z,21.04
2019-05-15T13:03:14.529Z,20.95
2019-05-15T13:04:14.519Z,20.96
2019-05-15T13:05:14.571Z,21.03
2019-05-15T13:06:14.487Z,21.03
2019-05-15T13:07:16.875Z,20.96
2019-05-15T13:08:15.478Z,20.90
2019-05-15T13:09:14.452Z,20.83
2019-05-15T13:10:14.466Z,20.93
2019-05-15T13:11:15.339Z,20.92
2019-05-15T13:12:14.433Z,20.93